Time;durP1;ratioP1;P1;durP2;ratioP2;P2;SDS_P1;SDS_P2;PMS_P1;PMS_P2;Temp;Humidity;BMP_temperature;BMP_pressure;BME280_temperature;BME280_humidity;BME280_pressure;Samples;Min_cycle;Max_cycle;Signal;HPM_P1;HPM_P2
2021/10/17 00:01:16;;;;;;;10.35;7.40;;;3.10;99.90;;;;;;5045487;28;20028;-72
2021/10/17 00:03:42;;;;;;;12.75;7.82;;;3.10;99.90;;;;;;5039599;28;20020;-73
2021/10/17 00:06:07;;;;;;;14.38;10.05;;;3.10;99.90;;;;;;5043898;28;20255;-73
2021/10/17 00:08:33;;;;;;;14.88;9.73;;;3.00;99.90;;;;;;5030133;28;20029;-73
2021/10/17 00:10:58;;;;;;;16.17;11.15;;;2.10;99.90;;;;;;5031151;28;20112;-72
2021/10/17 00:13:24;;;;;;;15.25;11.63;;;2.30;99.90;;;;;;5038012;28;20484;-72
2021/10/17 00:15:50;;;;;;;12.40;9.50;;;2.40;99.90;;;;;;5043120;28;20032;-73
2021/10/17 00:18:15;;;;;;;15.05;10.45;;;2.40;99.90;;;;;;5041546;28;20525;-73
2021/10/17 00:20:41;;;;;;;10.57;8.32;;;2.40;99.90;;;;;;5033966;28;20025;-72
2021/10/17 00:23:08;;;;;;;12.07;7.55;;;2.60;99.90;;;;;;5035417;28;20379;-73
2021/10/17 00:25:33;;;;;;;10.75;8.10;;;2.70;99.90;;;;;;5025824;28;20025;-72
2021/10/17 00:27:59;;;;;;;18.65;8.20;;;2.70;99.90;;;;;;5046792;28;20032;-72
2021/10/17 00:30:25;;;;;;;9.98;6.93;;;2.70;99.90;;;;;;5043421;28;20029;-73
2021/10/17 00:32:51;;;;;;;11.25;6.50;;;2.80;99.90;;;;;;5037375;28;20044;-72
2021/10/17 00:35:18;;;;;;;9.20;6.43;;;3.00;99.90;;;;;;5050884;28;20028;-73
2021/10/17 00:37:44;;;;;;;12.60;7.55;;;2.90;99.90;;;;;;5043275;28;20079;-73
2021/10/17 00:40:14;;;;;;;11.23;6.00;;;2.90;99.90;;;;;;5047355;28;20379;-73
2021/10/17 00:42:41;;;;;;;11.52;6.75;;;3.00;99.90;;;;;;5047382;28;20100;-72
2021/10/17 00:45:09;;;;;;;13.13;8.52;;;2.90;99.90;;;;;;5050497;28;20017;-72
2021/10/17 00:47:35;;;;;;;13.82;9.85;;;2.60;99.90;;;;;;5031519;28;20024;-73
2021/10/17 00:50:01;;;;;;;14.10;9.05;;;2.30;99.90;;;;;;5041754;28;20031;-73
2021/10/17 00:52:27;;;;;;;10.55;7.43;;;2.30;99.90;;;;;;5033609;28;20523;-73
2021/10/17 00:54:53;;;;;;;15.80;10.82;;;2.40;99.90;;;;;;5046206;28;20056;-73
2021/10/17 00:57:18;;;;;;;12.25;10.30;;;2.40;99.90;;;;;;5042079;28;20443;-73
2021/10/17 00:59:45;;;;;;;14.85;9.70;;;2.40;99.90;;;;;;5042107;28;20021;-73
2021/10/17 01:02:11;;;;;;;11.52;8.98;;;2.60;99.90;;;;;;5045008;28;20096;-73
2021/10/17 01:04:38;;;;;;;13.02;9.38;;;2.50;99.90;;;;;;5046355;28;20471;-73
2021/10/17 01:07:08;;;;;;;13.77;10.32;;;2.70;99.90;;;;;;5044868;28;20018;-73
2021/10/17 01:09:35;;;;;;;13.00;8.13;;;2.50;99.90;;;;;;5033309;28;20387;-73
2021/10/17 01:12:02;;;;;;;10.98;8.00;;;2.60;99.90;;;;;;5042466;28;20028;-73
2021/10/17 01:14:27;;;;;;;13.82;7.93;;;2.70;99.90;;;;;;5049580;28;20428;-72
2021/10/17 01:16:53;;;;;;;9.30;6.90;;;2.90;99.90;;;;;;5042712;28;20026;-73
2021/10/17 01:19:21;;;;;;;10.98;6.90;;;3.00;99.90;;;;;;5048051;28;20053;-73
2021/10/17 01:21:47;;;;;;;9.10;6.35;;;3.20;99.90;;;;;;5041914;28;20060;-73
2021/10/17 01:24:13;;;;;;;10.27;6.68;;;3.30;99.90;;;;;;5035048;28;20030;-73
2021/10/17 01:26:39;;;;;;;11.00;7.07;;;3.40;99.90;;;;;;5034911;28;20017;-73
2021/10/17 01:29:05;;;;;;;14.27;9.07;;;3.40;99.90;;;;;;5033727;28;20017;-73
2021/10/17 01:31:39;;;;;;;10.98;7.35;;;3.50;99.90;;;;;;5043404;28;20021;-73
2021/10/17 01:34:07;;;;;;;12.40;8.63;;;3.40;99.90;;;;;;5044303;28;20384;-73
2021/10/17 01:36:37;;;;;;;14.20;8.95;;;3.40;99.90;;;;;;5045584;28;20075;-73
2021/10/17 01:39:05;;;;;;;13.85;9.65;;;3.00;99.90;;;;;;5038167;28;20108;-73
2021/10/17 01:41:30;;;;;;;8.15;6.80;;;3.00;99.90;;;;;;5043814;28;20017;-72
2021/10/17 01:44:02;;;;;;;14.13;9.32;;;3.20;99.90;;;;;;5030375;28;20496;-73
2021/10/17 01:46:28;;;;;;;16.58;10.80;;;3.30;99.90;;;;;;5044910;28;20025;-74
2021/10/17 01:48:53;;;;;;;12.32;9.50;;;3.20;99.90;;;;;;5046971;28;20121;-73
2021/10/17 01:51:19;;;;;;;11.18;9.23;;;3.30;99.90;;;;;;5033826;28;20384;-73
2021/10/17 01:53:45;;;;;;;11.43;8.13;;;3.30;99.90;;;;;;5033671;28;20021;-73
2021/10/17 01:56:10;;;;;;;14.25;10.50;;;3.40;99.90;;;;;;5033770;28;20545;-73
2021/10/17 01:58:36;;;;;;;11.55;9.18;;;3.00;99.90;;;;;;5033927;28;20128;-74
2021/10/17 02:01:01;;;;;;;13.68;9.63;;;2.90;99.90;;;;;;5033520;28;20032;-73
2021/10/17 02:03:27;;;;;;;11.27;7.85;;;3.10;99.90;;;;;;5033545;28;20048;-73
2021/10/17 02:05:53;;;;;;;12.65;8.73;;;;;;;;;;5033457;28;20022;-71
2021/10/17 02:08:18;;;;;;;16.17;11.23;;;3.40;99.90;;;;;;5033316;28;20437;-72
2021/10/17 02:10:44;;;;;;;10.98;8.35;;;3.40;99.90;;;;;;5025871;28;20026;-72
2021/10/17 02:13:09;;;;;;;12.73;8.80;;;3.40;99.90;;;;;;5030229;28;20527;-72
2021/10/17 02:15:35;;;;;;;12.98;9.13;;;3.40;99.90;;;;;;5032252;28;20361;-74
2021/10/17 02:18:01;;;;;;;10.50;8.43;;;3.40;99.90;;;;;;5033144;28;20014;-73
2021/10/17 02:20:26;;;;;;;12.95;9.35;;;3.40;99.90;;;;;;5033362;28;20105;-73
2021/10/17 02:22:52;;;;;;;12.38;9.60;;;3.50;99.90;;;;;;5019466;28;20102;-72
2021/10/17 02:25:17;;;;;;;13.77;9.73;;;3.60;99.90;;;;;;5013529;28;20061;-72
2021/10/17 02:27:43;;;;;;;8.80;7.45;;;3.40;99.90;;;;;;5013318;28;20030;-73
2021/10/17 02:30:09;;;;;;;12.48;7.20;;;3.50;99.90;;;;;;5013835;28;20045;-72
2021/10/17 02:32:35;;;;;;;13.43;8.60;;;3.60;99.90;;;;;;5032712;28;20479;-73
2021/10/17 02:35:01;;;;;;;15.93;9.65;;;3.70;99.90;;;;;;5032848;28;20036;-73
2021/10/17 02:37:30;;;;;;;12.65;9.45;;;3.70;99.90;;;;;;5032768;28;20025;-73
2021/10/17 02:39:56;;;;;;;13.82;9.82;;;3.70;99.90;;;;;;5032019;28;20472;-72
2021/10/17 02:42:22;;;;;;;13.20;10.88;;;3.40;99.90;;;;;;5031412;28;20048;-73
2021/10/17 02:44:47;;;;;;;11.57;8.10;;;3.60;99.90;;;;;;5031490;28;20488;-72
2021/10/17 02:47:13;;;;;;;14.88;8.43;;;3.60;99.90;;;;;;5032555;28;20028;-73
2021/10/17 02:49:38;;;;;;;13.70;9.95;;;3.60;99.90;;;;;;5033107;28;20049;-72
2021/10/17 02:52:04;;;;;;;12.73;9.60;;;3.70;99.90;;;;;;5031934;28;20029;-72
2021/10/17 02:54:30;;;;;;;14.50;9.05;;;3.80;99.90;;;;;;5032971;28;20025;-74
2021/10/17 02:56:55;;;;;;;11.75;8.70;;;3.70;99.90;;;;;;5019126;28;20022;-74
2021/10/17 02:59:21;;;;;;;15.15;10.43;;;3.90;99.90;;;;;;5024701;28;20025;-73
2021/10/17 03:01:46;;;;;;;16.50;9.43;;;3.70;99.90;;;;;;5031174;28;20021;-73
2021/10/17 03:04:12;;;;;;;11.50;8.88;;;3.90;99.90;;;;;;5025624;28;20053;-74
2021/10/17 03:06:38;;;;;;;14.00;10.77;;;3.80;99.90;;;;;;5025804;28;20443;-74
2021/10/17 03:09:03;;;;;;;14.68;10.55;;;4.00;99.90;;;;;;5019854;28;20048;-74
2021/10/17 03:11:29;;;;;;;11.93;8.95;;;3.50;99.90;;;;;;5032259;28;20543;-74
2021/10/17 03:13:55;;;;;;;9.65;8.45;;;3.40;99.90;;;;;;5032362;28;20042;-73
2021/10/17 03:16:20;;;;;;;13.50;9.95;;;3.60;99.90;;;;;;5034236;28;20030;-74
2021/10/17 03:18:46;;;;;;;16.88;11.50;;;3.70;99.90;;;;;;5025163;28;20058;-74
2021/10/17 03:21:11;;;;;;;12.73;9.80;;;3.40;99.90;;;;;;5025729;28;20509;-74
2021/10/17 03:23:37;;;;;;;14.05;10.32;;;3.40;99.90;;;;;;5028891;28;20069;-74
2021/10/17 03:26:02;;;;;;;13.68;11.65;;;3.60;99.90;;;;;;5032029;28;20407;-74
2021/10/17 03:28:28;;;;;;;16.75;12.25;;;3.70;99.90;;;;;;5032012;28;20484;-74
2021/10/17 03:30:55;;;;;;;14.40;10.98;;;3.70;99.90;;;;;;5031522;28;20033;-74
2021/10/17 03:33:21;;;;;;;14.93;11.45;;;3.70;99.90;;;;;;5032035;28;20040;-74
2021/10/17 03:35:47;;;;;;;12.27;11.02;;;3.80;99.90;;;;;;5017908;28;20114;-73
2021/10/17 03:38:12;;;;;;;12.60;9.60;;;3.90;99.90;;;;;;5010982;28;20109;-74
2021/10/17 03:40:38;;;;;;;16.08;10.95;;;3.90;99.90;;;;;;5012000;28;20025;-73
2021/10/17 03:43:03;;;;;;;13.63;10.73;;;4.10;99.90;;;;;;5011010;28;20026;-73
2021/10/17 03:45:30;;;;;;;16.45;11.98;;;4.00;99.90;;;;;;5030020;28;20022;-73
2021/10/17 03:47:56;;;;;;;15.75;11.13;;;4.00;99.90;;;;;;5031734;28;20034;-73
2021/10/17 03:50:22;;;;;;;13.90;11.25;;;3.90;99.90;;;;;;5031648;28;20052;-74
2021/10/17 03:52:48;;;;;;;14.13;10.45;;;4.00;99.90;;;;;;5030883;28;20479;-75
2021/10/17 03:55:13;;;;;;;15.70;11.15;;;4.00;99.90;;;;;;5031120;28;20104;-76
2021/10/17 03:57:39;;;;;;;13.52;9.43;;;3.80;99.90;;;;;;5019111;28;20558;-76
2021/10/17 04:00:05;;;;;;;10.98;8.75;;;3.90;99.90;;;;;;5030370;28;20024;-75
2021/10/17 04:02:31;;;;;;;16.73;11.20;;;4.00;99.90;;;;;;5018598;28;20025;-75
2021/10/17 04:04:56;;;;;;;14.90;11.40;;;4.20;99.90;;;;;;5017426;28;20037;-76
2021/10/17 04:07:22;;;;;;;13.63;12.20;;;3.90;99.90;;;;;;5031360;28;20026;-74
2021/10/17 04:09:47;;;;;;;12.93;9.85;;;4.00;99.90;;;;;;5031675;28;20040;-74
2021/10/17 04:12:13;;;;;;;16.98;11.90;;;4.00;99.90;;;;;;5031428;28;20030;-74
2021/10/17 04:14:38;;;;;;;15.85;13.02;;;4.10;99.90;;;;;;5031601;28;20557;-75
2021/10/17 04:17:04;;;;;;;20.20;12.10;;;4.00;99.90;;;;;;5018149;28;20028;-74
2021/10/17 04:19:29;;;;;;;14.70;11.00;;;3.90;99.90;;;;;;5030253;28;20018;-74
2021/10/17 04:21:55;;;;;;;13.25;11.18;;;3.90;99.90;;;;;;5025100;28;20045;-75
2021/10/17 04:24:20;;;;;;;13.82;12.02;;;4.00;99.90;;;;;;5023557;28;20022;-73
2021/10/17 04:26:46;;;;;;;14.05;10.88;;;4.00;99.90;;;;;;5018256;28;20030;-74
2021/10/17 04:29:12;;;;;;;13.77;10.68;;;4.00;99.90;;;;;;5031220;28;20078;-74
2021/10/17 04:31:37;;;;;;;16.15;11.88;;;4.10;99.90;;;;;;5033741;28;20033;-73
2021/10/17 04:34:03;;;;;;;60.70;42.50;;;4.10;99.90;;;;;;5019110;28;20085;-73
2021/10/17 04:36:29;;;;;;;31.67;23.40;;;4.20;99.90;;;;;;5024725;28;20108;-73
2021/10/17 04:38:54;;;;;;;16.05;12.32;;;4.30;99.90;;;;;;5024281;28;20018;-73
2021/10/17 04:41:20;;;;;;;13.13;9.90;;;4.10;99.90;;;;;;5017912;28;20075;-74
2021/10/17 04:43:46;;;;;;;15.02;11.93;;;4.20;99.90;;;;;;5024378;28;20379;-74
2021/10/17 04:46:12;;;;;;;15.75;11.65;;;4.30;99.90;;;;;;5031424;28;20021;-74
2021/10/17 04:48:38;;;;;;;12.13;10.52;;;4.20;99.90;;;;;;5031217;28;20125;-73
2021/10/17 04:51:03;;;;;;;13.15;10.40;;;4.10;99.90;;;;;;5017859;28;20100;-74
2021/10/17 04:53:29;;;;;;;13.50;11.55;;;4.30;99.90;;;;;;5031400;28;20112;-73
2021/10/17 04:55:54;;;;;;;12.68;10.90;;;4.30;99.90;;;;;;5025116;28;20056;-75
2021/10/17 04:58:20;;;;;;;13.55;9.43;;;4.30;99.90;;;;;;5031122;28;20045;-73
2021/10/17 05:00:45;;;;;;;17.85;10.60;;;4.40;99.90;;;;;;5017940;28;20443;-74
2021/10/17 05:03:11;;;;;;;13.55;11.98;;;4.40;99.90;;;;;;5020395;28;20114;-73
2021/10/17 05:05:36;;;;;;;16.10;10.65;;;4.10;99.90;;;;;;5032025;28;20391;-73
2021/10/17 05:08:03;;;;;;;15.98;13.25;;;4.10;99.90;;;;;;5034597;28;20112;-74
2021/10/17 05:10:28;;;;;;;14.52;12.15;;;4.20;99.90;;;;;;5028730;28;20105;-74
2021/10/17 05:12:54;;;;;;;14.90;10.95;;;4.20;99.90;;;;;;5013398;28;20546;-73
2021/10/17 05:15:20;;;;;;;17.67;12.90;;;4.20;99.90;;;;;;5020728;28;20105;-74
2021/10/17 05:17:45;;;;;;;15.77;11.63;;;4.40;99.90;;;;;;5022006;28;20500;-74
2021/10/17 05:20:11;;;;;;;12.27;9.80;;;4.30;99.90;;;;;;5033797;28;20159;-74
2021/10/17 05:22:37;;;;;;;20.08;13.50;;;4.30;99.90;;;;;;5034304;28;20490;-74
2021/10/17 05:25:03;;;;;;;11.52;10.07;;;4.30;99.90;;;;;;5021331;28;20033;-73
2021/10/17 05:27:28;;;;;;;14.48;11.38;;;4.10;99.90;;;;;;5022043;28;20034;-74
2021/10/17 05:29:54;;;;;;;14.00;12.50;;;4.20;99.90;;;;;;5032037;28;20531;-75
2021/10/17 05:32:21;;;;;;;14.93;11.73;;;4.30;99.90;;;;;;5033034;28;20022;-75
2021/10/17 05:34:47;;;;;;;15.57;12.18;;;4.40;99.90;;;;;;5020747;28;20025;-75
2021/10/17 05:37:12;;;;;;;15.52;10.77;;;4.40;99.90;;;;;;5022161;28;20535;-75
2021/10/17 05:39:37;;;;;;;15.40;11.88;;;4.60;99.90;;;;;;5027813;28;20102;-75
2021/10/17 05:42:04;;;;;;;19.17;13.23;;;4.40;99.90;;;;;;5026071;28;20093;-73
2021/10/17 05:44:30;;;;;;;38.25;28.73;;;4.40;99.90;;;;;;5034476;28;20104;-73
2021/10/17 05:46:56;;;;;;;76.32;46.88;;;4.30;99.90;;;;;;5033241;28;20496;-75
2021/10/17 05:49:21;;;;;;;21.45;15.90;;;4.10;99.90;;;;;;5033873;28;20036;-74
2021/10/17 05:51:47;;;;;;;15.05;12.05;;;4.10;99.90;;;;;;5021909;28;20040;-75
2021/10/17 05:54:13;;;;;;;13.30;11.18;;;4.10;99.90;;;;;;5027439;28;20036;-75
2021/10/17 05:56:38;;;;;;;29.10;19.95;;;4.30;99.90;;;;;;5025787;28;20060;-74
2021/10/17 05:59:08;;;;;;;25.33;16.85;;;4.40;99.90;;;;;;5032494;28;20017;-75
2021/10/17 06:01:35;;;;;;;24.45;18.38;;;4.40;99.90;;;;;;5021581;28;20018;-75
2021/10/17 06:04:00;;;;;;;25.95;16.70;;;4.40;99.90;;;;;;5031813;28;20113;-75
2021/10/17 06:06:26;;;;;;;38.85;25.63;;;4.60;99.90;;;;;;5033743;28;20109;-75
2021/10/17 06:08:54;;;;;;;39.38;27.25;;;4.60;99.90;;;;;;5033554;28;20018;-75
2021/10/17 06:11:20;;;;;;;52.22;42.33;;;4.70;99.90;;;;;;5020827;28;20022;-75
2021/10/17 06:13:45;;;;;;;51.65;35.45;;;4.70;99.90;;;;;;5019643;28;20030;-74
2021/10/17 06:16:11;;;;;;;51.95;34.60;;;4.80;99.90;;;;;;5020936;28;20074;-74
2021/10/17 06:18:36;;;;;;;42.30;29.88;;;4.70;99.90;;;;;;5032042;28;20472;-73
2021/10/17 06:21:02;;;;;;;39.83;28.23;;;4.70;99.90;;;;;;5033267;28;20075;-74
2021/10/17 06:23:28;;;;;;;28.08;17.33;;;4.70;99.90;;;;;;5020089;28;20044;-73
2021/10/17 06:25:54;;;;;;;19.02;13.95;;;4.70;99.90;;;;;;5033135;28;20114;-73
2021/10/17 06:28:19;;;;;;;20.52;15.10;;;4.80;99.90;;;;;;5019764;28;20053;-75
2021/10/17 06:30:45;;;;;;;14.80;11.68;;;5.10;99.90;;;;;;5032697;28;20033;-74
2021/10/17 06:33:11;;;;;;;15.45;11.57;;;5.00;99.90;;;;;;5033054;28;20026;-74
2021/10/17 06:35:36;;;;;;;14.02;10.57;;;5.00;99.90;;;;;;5032061;28;20035;-73
2021/10/17 06:38:02;;;;;;;23.92;16.55;;;5.10;99.90;;;;;;5033051;28;20419;-73
2021/10/17 06:40:27;;;;;;;15.05;11.32;;;5.10;99.90;;;;;;5032312;28;20538;-73
2021/10/17 06:42:53;;;;;;;17.13;9.93;;;5.00;99.90;;;;;;5031888;28;20612;-73
2021/10/17 06:45:19;;;;;;;16.60;11.57;;;5.00;99.90;;;;;;5032864;28;20058;-73
2021/10/17 06:47:44;;;;;;;13.55;9.68;;;5.20;99.90;;;;;;5032899;28;20028;-74
2021/10/17 06:50:10;;;;;;;11.18;8.75;;;5.00;99.90;;;;;;5032712;28;20464;-73
2021/10/17 06:52:35;;;;;;;12.45;9.63;;;5.00;99.90;;;;;;5032289;28;20495;-73
2021/10/17 06:55:01;;;;;;;12.30;9.82;;;5.10;99.90;;;;;;5032430;28;20037;-73
2021/10/17 06:57:26;;;;;;;14.13;10.27;;;5.10;99.90;;;;;;5032513;28;20021;-73
2021/10/17 06:59:52;;;;;;;13.73;10.18;;;5.10;99.90;;;;;;5031342;28;20022;-73
2021/10/17 07:02:17;;;;;;;13.15;9.77;;;5.00;99.90;;;;;;5032354;28;20155;-74
2021/10/17 07:04:43;;;;;;;17.70;10.70;;;5.10;99.90;;;;;;5032500;28;20029;-72
2021/10/17 07:07:08;;;;;;;14.48;12.00;;;5.10;99.90;;;;;;5032327;28;20503;-72
2021/10/17 07:09:34;;;;;;;14.50;10.48;;;5.10;99.90;;;;;;5032284;28;20025;-74
2021/10/17 07:11:59;;;;;;;11.77;10.05;;;5.20;99.90;;;;;;5019205;28;20025;-73
2021/10/17 07:14:25;;;;;;;20.52;14.80;;;5.20;99.90;;;;;;5019823;28;20503;-73
2021/10/17 07:16:50;;;;;;;16.40;12.65;;;5.30;99.90;;;;;;5030792;28;20041;-73
2021/10/17 07:19:16;;;;;;;14.85;11.88;;;5.30;99.90;;;;;;5020612;28;20028;-73
2021/10/17 07:21:41;;;;;;;13.73;10.85;;;5.30;99.90;;;;;;5025510;28;20029;-73
2021/10/17 07:24:07;;;;;;;17.15;12.57;;;5.20;99.90;;;;;;5012476;28;20026;-73
2021/10/17 07:26:32;;;;;;;13.65;10.93;;;5.20;99.90;;;;;;5016546;28;20033;-74
2021/10/17 07:28:58;;;;;;;13.73;10.60;;;5.20;99.90;;;;;;5032009;28;20541;-73
2021/10/17 07:31:24;;;;;;;16.05;11.48;;;5.30;99.90;;;;;;5031853;28;20076;-74
2021/10/17 07:33:49;;;;;;;17.73;11.18;;;5.30;99.90;;;;;;5021241;28;20100;-74
2021/10/17 07:36:15;;;;;;;16.70;12.48;;;5.30;99.90;;;;;;5029803;28;20029;-74
2021/10/17 07:38:40;;;;;;;16.63;11.98;;;5.20;99.90;;;;;;5019965;28;20026;-74
2021/10/17 07:41:06;;;;;;;14.57;11.90;;;5.20;99.90;;;;;;5025215;28;20535;-74
2021/10/17 07:43:31;;;;;;;18.98;13.52;;;5.20;99.90;;;;;;5023209;28;20059;-74
2021/10/17 07:46:01;;;;;;;16.38;11.25;;;5.30;99.90;;;;;;5032066;28;20041;-74
2021/10/17 07:48:27;;;;;;;16.65;12.75;;;5.30;99.90;;;;;;5020748;28;20014;-74
2021/10/17 07:50:52;;;;;;;14.15;10.85;;;5.40;99.90;;;;;;5025294;28;20037;-74
2021/10/17 07:53:18;;;;;;;17.48;12.57;;;5.50;99.90;;;;;;5015103;28;20109;-74
2021/10/17 07:55:43;;;;;;;15.50;12.23;;;5.60;99.90;;;;;;5016545;28;20029;-74
2021/10/17 07:58:09;;;;;;;16.73;12.15;;;5.60;99.90;;;;;;5031884;28;20033;-74
2021/10/17 08:00:34;;;;;;;17.77;12.52;;;5.60;99.90;;;;;;5031666;28;20026;-74
2021/10/17 08:03:00;;;;;;;15.60;13.15;;;5.70;99.90;;;;;;5030528;28;20400;-74
2021/10/17 08:05:26;;;;;;;17.92;13.65;;;5.70;99.90;;;;;;5018502;28;20029;-74
2021/10/17 08:07:53;;;;;;;16.10;12.82;;;5.70;99.90;;;;;;5021003;28;20192;-73
2021/10/17 08:10:19;;;;;;;18.10;13.90;;;5.80;99.90;;;;;;5025115;28;20396;-74
2021/10/17 08:12:44;;;;;;;16.77;14.20;;;5.80;99.90;;;;;;5021317;28;20025;-74
2021/10/17 08:15:10;;;;;;;19.48;14.82;;;5.90;99.90;;;;;;5018443;28;20034;-75
2021/10/17 08:17:36;;;;;;;17.70;13.90;;;5.90;99.90;;;;;;5018944;28;20029;-75
2021/10/17 08:20:05;;;;;;;16.23;13.23;;;5.80;99.90;;;;;;5028922;28;20083;-74
2021/10/17 08:22:32;;;;;;;18.20;12.25;;;5.90;99.90;;;;;;5027957;28;20029;-74
2021/10/17 08:24:58;;;;;;;16.85;12.77;;;5.90;99.90;;;;;;5026030;28;20444;-74
2021/10/17 08:27:23;;;;;;;17.33;12.63;;;5.90;99.90;;;;;;5039298;28;20057;-74
2021/10/17 08:29:49;;;;;;;16.85;13.00;;;6.00;99.90;;;;;;5022499;28;20483;-74
2021/10/17 08:32:14;;;;;;;16.77;12.35;;;6.00;99.90;;;;;;5025461;28;20025;-73
2021/10/17 08:34:40;;;;;;;16.77;12.30;;;6.10;99.90;;;;;;5024636;28;20616;-75
2021/10/17 08:37:06;;;;;;;16.30;12.35;;;6.20;99.90;;;;;;5021565;28;20022;-74
2021/10/17 08:39:31;;;;;;;16.83;13.15;;;6.30;99.90;;;;;;5032844;28;20041;-75
2021/10/17 08:41:57;;;;;;;18.42;13.10;;;6.30;99.90;;;;;;5034225;28;20140;-75
2021/10/17 08:44:22;;;;;;;15.68;12.32;;;6.20;99.90;;;;;;5023628;28;20029;-75
2021/10/17 08:46:50;;;;;;;15.88;12.50;;;6.30;99.90;;;;;;5026587;28;20029;-75
2021/10/17 08:49:19;;;;;;;13.77;12.20;;;6.40;99.90;;;;;;5029423;28;20033;-75
2021/10/17 08:51:45;;;;;;;18.23;12.27;;;6.40;99.90;;;;;;5026574;28;20021;-74
2021/10/17 08:54:11;;;;;;;15.20;11.70;;;6.60;99.90;;;;;;5021792;28;20025;-75
2021/10/17 08:56:36;;;;;;;14.60;11.55;;;6.60;99.90;;;;;;5031412;28;20029;-75
2021/10/17 08:59:02;;;;;;;13.15;11.65;;;6.60;99.90;;;;;;5021661;28;20084;-75
2021/10/17 09:01:35;;;;;;;13.38;10.80;;;6.60;99.90;;;;;;5034585;28;20029;-75
2021/10/17 09:04:02;;;;;;;16.27;11.32;;;6.60;99.90;;;;;;5026655;28;20065;-75
2021/10/17 09:06:32;;;;;;;13.77;12.10;;;6.70;99.90;;;;;;5027198;28;20545;-75
2021/10/17 09:09:09;;;;;;;15.90;12.85;;;6.80;99.90;;;;;;5028774;28;20029;-75
2021/10/17 09:11:45;;;;;;;18.60;12.18;;;7.00;99.90;;;;;;5028114;28;20029;-75
2021/10/17 09:14:18;;;;;;;16.02;11.82;;;6.90;99.90;;;;;;5023723;28;20076;-74
2021/10/17 09:16:49;;;;;;;16.10;12.80;;;7.00;99.90;;;;;;5025313;28;20120;-74
2021/10/17 09:19:29;;;;;;;16.98;12.23;;;7.00;99.90;;;;;;5023856;28;20128;-74
2021/10/17 09:22:09;;;;;;;18.50;12.30;;;7.00;99.90;;;;;;5032465;28;20388;-75
2021/10/17 09:24:49;;;;;;;15.02;11.45;;;7.10;99.90;;;;;;5027697;28;20025;-75
2021/10/17 09:27:17;;;;;;;14.65;11.55;;;7.00;99.90;;;;;;5034476;28;20018;-75
2021/10/17 09:29:48;;;;;;;17.38;11.88;;;7.10;99.90;;;;;;5020898;28;20022;-75
2021/10/17 09:32:19;;;;;;;13.35;10.85;;;7.30;99.90;;;;;;5023808;28;20018;-75
2021/10/17 09:34:52;;;;;;;13.85;11.05;;;7.10;99.90;;;;;;5026638;28;20030;-75
2021/10/17 09:37:17;;;;;;;14.35;10.32;;;7.20;99.90;;;;;;5026280;28;20506;-74
2021/10/17 09:39:51;;;;;;;14.23;10.75;;;7.20;99.90;;;;;;5020758;28;20025;-75
2021/10/17 09:42:21;;;;;;;15.48;10.40;;;7.20;99.90;;;;;;5021669;28;20117;-74
2021/10/17 09:44:47;;;;;;;18.83;10.32;;;7.40;99.90;;;;;;5027773;28;20018;-74
2021/10/17 09:47:13;;;;;;;12.70;9.50;;;7.70;99.90;;;;;;5034050;28;20026;-75
2021/10/17 09:49:40;;;;;;;12.88;9.52;;;7.90;99.90;;;;;;5024750;28;20026;-74
2021/10/17 09:52:13;;;;;;;11.05;9.35;;;7.90;99.90;;;;;;5027793;28;20022;-74
2021/10/17 09:55:04;;;;;;;14.82;9.43;;;8.00;99.90;;;;;;5023333;28;20151;-73
2021/10/17 09:57:29;;;;;;;12.38;8.85;;;8.10;99.90;;;;;;5012676;28;20095;-74
2021/10/17 09:59:55;;;;;;;12.70;9.68;;;8.20;99.90;;;;;;5012718;28;20026;-74
2021/10/17 10:02:22;;;;;;;10.65;9.13;;;8.40;99.90;;;;;;5027374;28;20017;-74
2021/10/17 10:04:49;;;;;;;11.63;9.02;;;8.50;99.90;;;;;;5013768;28;20057;-74
2021/10/17 10:07:22;;;;;;;13.68;8.77;;;8.30;99.90;;;;;;5013872;28;20022;-73
2021/10/17 10:09:49;;;;;;;12.50;8.50;;;8.30;99.90;;;;;;5014083;28;20496;-74
2021/10/17 10:12:18;;;;;;;12.73;9.00;;;8.50;99.90;;;;;;5024998;28;20041;-73
2021/10/17 10:14:48;;;;;;;12.27;8.35;;;8.70;99.90;;;;;;5026413;28;20033;-74
2021/10/17 10:17:17;;;;;;;9.45;7.60;;;8.80;99.90;;;;;;5033251;28;20372;-74
2021/10/17 10:19:44;;;;;;;11.63;8.27;;;8.90;99.90;;;;;;5038731;28;20024;-73
2021/10/17 10:22:12;;;;;;;12.73;8.02;;;9.00;99.90;;;;;;5037310;28;20017;-73
2021/10/17 10:24:38;;;;;;;11.38;8.70;;;9.00;99.90;;;;;;5043666;28;20681;-73
2021/10/17 10:27:05;;;;;;;13.55;8.77;;;8.90;99.90;;;;;;5059289;28;20085;-74
2021/10/17 10:29:33;;;;;;;10.80;8.73;;;8.50;99.90;;;;;;5036741;28;20055;-74
2021/10/17 10:32:00;;;;;;;11.25;8.75;;;8.50;99.90;;;;;;5037910;28;20110;-74
2021/10/17 10:34:49;;;;;;;10.10;7.95;;;8.60;99.90;;;;;;5039506;28;20179;-74
2021/10/17 10:37:16;;;;;;;8.52;7.72;;;8.70;99.90;;;;;;5038161;28;20510;-74
2021/10/17 10:39:59;;;;;;;12.13;8.40;;;8.80;99.90;;;;;;5033680;28;20021;-74
2021/10/17 10:42:36;;;;;;;10.85;8.27;;;8.60;99.90;;;;;;5035157;28;20034;-74
2021/10/17 10:45:20;;;;;;;10.82;7.50;;;8.60;99.90;;;;;;5031716;28;20028;-74
2021/10/17 10:47:49;;;;;;;12.02;8.27;;;8.80;99.90;;;;;;5032654;28;20124;-74
2021/10/17 10:50:32;;;;;;;8.75;7.82;;;9.00;99.90;;;;;;5032522;28;20025;-74
2021/10/17 10:52:58;;;;;;;12.10;8.23;;;9.10;99.90;;;;;;5035012;28;20466;-74
2021/10/17 10:55:48;;;;;;;10.32;8.02;;;9.00;99.90;;;;;;5036705;28;20072;-74
2021/10/17 10:58:21;;;;;;;10.38;8.02;;;8.90;99.90;;;;;;5042674;28;20017;-74
2021/10/17 11:00:47;;;;;;;12.75;8.70;;;8.90;99.90;;;;;;5045206;28;20013;-74
2021/10/17 11:03:17;;;;;;;11.18;8.70;;;9.00;99.90;;;;;;5039855;28;20670;-74
2021/10/17 11:06:06;;;;;;;11.77;8.38;;;9.10;99.90;;;;;;5042966;28;20032;-74
2021/10/17 11:08:32;;;;;;;10.23;7.93;;;9.30;99.90;;;;;;5030624;28;20033;-74
2021/10/17 11:10:58;;;;;;;11.32;7.93;;;9.40;99.90;;;;;;5050206;28;20526;-74
2021/10/17 11:13:31;;;;;;;10.88;8.57;;;9.30;99.90;;;;;;5041721;28;20124;-74
2021/10/17 11:15:57;;;;;;;11.57;8.70;;;9.20;99.90;;;;;;5043899;28;20083;-74
2021/10/17 11:18:29;;;;;;;10.52;8.30;;;9.20;99.90;;;;;;5034431;28;20021;-74
2021/10/17 11:20:55;;;;;;;11.90;8.75;;;9.30;99.90;;;;;;5037377;28;20026;-74
2021/10/17 11:23:22;;;;;;;12.60;9.02;;;9.30;99.90;;;;;;5044073;28;20511;-74
2021/10/17 11:25:53;;;;;;;12.27;8.52;;;9.30;99.90;;;;;;5048598;28;20021;-74
2021/10/17 11:28:19;;;;;;;11.02;8.98;;;9.40;99.90;;;;;;5039410;28;20014;-74
2021/10/17 11:30:44;;;;;;;10.75;8.25;;;9.40;99.90;;;;;;5041013;28;20054;-74
2021/10/17 11:33:22;;;;;;;11.18;8.48;;;9.50;99.90;;;;;;5038436;28;20090;-74
2021/10/17 11:35:48;;;;;;;12.35;9.00;;;9.60;99.90;;;;;;5036878;28;20078;-73
2021/10/17 11:38:16;;;;;;;10.27;8.73;;;9.70;99.90;;;;;;5031071;28;20029;-73
2021/10/17 11:40:43;;;;;;;13.07;8.38;;;9.70;99.90;;;;;;5031837;28;20025;-75
2021/10/17 11:43:09;;;;;;;9.48;8.02;;;9.70;99.90;;;;;;5030867;28;20033;-74
2021/10/17 11:45:43;;;;;;;9.18;7.68;;;9.70;99.90;;;;;;5031446;28;20018;-74
2021/10/17 11:48:12;;;;;;;11.80;7.70;;;9.70;99.90;;;;;;5031718;28;20115;-74
2021/10/17 11:50:51;;;;;;;10.10;8.27;;;9.90;99.90;;;;;;5030357;28;20026;-74
2021/10/17 11:53:17;;;;;;;10.75;7.32;;;10.00;99.90;;;;;;5023284;28;20034;-74
2021/10/17 11:55:45;;;;;;;8.77;7.43;;;10.30;99.90;;;;;;5030223;28;20467;-74
2021/10/17 11:58:22;;;;;;;8.98;7.57;;;10.20;99.90;;;;;;5020659;28;20018;-74
2021/10/17 12:01:15;;;;;;;11.38;7.47;;;10.30;99.90;;;;;;5017955;28;20531;-74
2021/10/17 12:03:42;;;;;;;9.65;6.78;;;10.50;99.90;;;;;;5025117;28;20041;-74
2021/10/17 12:06:16;;;;;;;9.77;6.78;;;10.50;99.90;;;;;;5031699;28;20021;-73
2021/10/17 12:08:55;;;;;;;13.15;6.78;;;10.70;99.90;;;;;;5031708;28;20053;-74
2021/10/17 12:11:22;;;;;;;10.20;6.60;;;10.80;99.90;;;;;;5032035;28;20025;-74
2021/10/17 12:13:52;;;;;;;8.27;6.43;;;10.90;99.90;;;;;;5035811;28;20499;-74
2021/10/17 12:16:22;;;;;;;11.15;6.95;;;10.70;99.90;;;;;;5035617;28;20032;-74
2021/10/17 12:18:47;;;;;;;8.82;6.63;;;10.60;99.90;;;;;;5034365;28;20018;-74
2021/10/17 12:21:38;;;;;;;9.63;6.10;;;10.70;99.90;;;;;;5035326;28;20025;-74
2021/10/17 12:24:04;;;;;;;9.30;6.60;;;10.80;99.90;;;;;;5031634;28;20025;-74
2021/10/17 12:26:32;;;;;;;7.50;6.55;;;10.90;99.90;;;;;;5033310;28;20030;-74
2021/10/17 12:29:17;;;;;;;8.82;6.30;;;11.10;99.90;;;;;;5035383;28;20021;-74
2021/10/17 12:31:45;;;;;;;8.95;6.55;;;11.40;99.90;;;;;;5022810;28;20391;-74
2021/10/17 12:34:11;;;;;;;9.63;6.50;;;11.40;99.90;;;;;;5035335;28;20025;-74
2021/10/17 12:36:39;;;;;;;8.90;6.20;;;11.50;99.90;;;;;;5035321;28;20109;-74
2021/10/17 12:39:08;;;;;;;11.30;6.72;;;11.50;99.90;;;;;;5019270;28;20029;-74
2021/10/17 12:41:34;;;;;;;9.40;6.50;;;11.40;99.90;;;;;;5015334;28;20121;-74
2021/10/17 12:44:02;;;;;;;9.82;7.13;;;11.60;99.90;;;;;;5033366;28;20017;-74